Time;durP1;ratioP1;P1;durP2;ratioP2;P2;SDS_P1;SDS_P2;PMS_P1;PMS_P2;Temp;Humidity;BMP_temperature;BMP_pressure;BME280_temperature;BME280_humidity;BME280_pressure;Samples;Min_cycle;Max_cycle;Signal;HPM_P1;HPM_P2
2022/10/03 00:00:23;;;;;;;1.17;0.75;;;;;;;8.83;100.00;93732.56;2129184;27;20039;-72
2022/10/03 00:01:24;;;;;;;3.58;1.30;;;;;;;8.86;100.00;93737.09;2131501;27;20026;-73
2022/10/03 00:02:34;;;;;;;0.70;0.63;;;;;;;8.85;100.00;93738.25;2131638;27;20367;-73
2022/10/03 00:04:00;;;;;;;1.13;0.80;;;;;;;8.78;100.00;93736.41;2131532;27;20109;-72
2022/10/03 00:05:28;;;;;;;2.50;0.77;;;;;;;8.77;100.00;93747.44;2124601;27;20034;-73
2022/10/03 00:07:02;;;;;;;1.65;0.63;;;;;;;8.78;100.00;93736.41;2119252;27;20087;-70
2022/10/03 00:08:31;;;;;;;2.58;0.63;;;;;;;8.79;100.00;93745.16;2128749;27;20038;-71
2022/10/03 00:09:41;;;;;;;0.80;0.70;;;;;;;8.77;100.00;93742.09;2128962;27;20034;-75
2022/10/03 00:11:08;;;;;;;3.22;0.90;;;;;;;8.75;100.00;93750.50;2131005;27;20039;-72
2022/10/03 00:12:15;;;;;;;3.33;1.00;;;;;;;8.74;100.00;93748.97;2129821;27;20361;-72
2022/10/03 00:13:38;;;;;;;1.25;0.88;;;;;;;8.75;100.00;93747.81;2131421;27;20029;-72
2022/10/03 00:15:08;;;;;;;3.38;0.85;;;;;;;8.76;100.00;93751.25;2129389;27;20041;-72
2022/10/03 00:16:35;;;;;;;4.30;0.90;;;;;;;8.71;100.00;93749.00;2131323;27;20030;-73
2022/10/03 00:18:12;;;;;;;3.45;1.10;;;;;;;8.73;100.00;93752.00;2129084;27;20126;-72
2022/10/03 00:19:19;;;;;;;0.73;0.70;;;;;;;8.67;100.00;93753.56;2131156;27;20023;-72
2022/10/03 00:20:35;;;;;;;1.17;0.90;;;;;;;8.69;100.00;93753.94;2129051;27;20460;-72
2022/10/03 00:21:36;;;;;;;1.25;0.95;;;;;;;8.65;100.00;93753.97;2129443;27;20046;-73
2022/10/03 00:23:06;;;;;;;2.15;0.90;;;;;;;8.63;100.00;93758.16;2132666;27;20037;-75
2022/10/03 00:24:25;;;;;;;3.70;0.88;;;;;;;8.61;100.00;93758.56;2128777;27;20043;-72
2022/10/03 00:25:44;;;;;;;2.25;0.80;;;;;;;8.60;100.00;93764.25;2127330;27;20027;-72
2022/10/03 00:26:55;;;;;;;1.25;0.90;;;;;;;8.62;100.00;93761.97;2131510;27;20445;-72
2022/10/03 00:28:14;;;;;;;3.00;0.98;;;;;;;8.61;100.00;93757.81;2127846;27;20464;-71
2022/10/03 00:29:34;;;;;;;5.57;1.17;;;;;;;8.56;100.00;93756.28;2131443;27;20019;-71
2022/10/03 00:30:56;;;;;;;5.03;0.90;;;;;;;8.52;100.00;93755.53;2127765;27;20030;-75
2022/10/03 00:32:29;;;;;;;1.65;0.90;;;;;;;8.48;100.00;93760.13;2127649;27;20047;-72
2022/10/03 00:33:49;;;;;;;1.67;0.95;;;;;;;8.41;100.00;93766.22;2124318;27;20026;-72
2022/10/03 00:34:53;;;;;;;3.08;0.77;;;;;;;8.39;100.00;93765.88;2131776;27;20431;-71
2022/10/03 00:35:57;;;;;;;2.10;0.77;;;;;;;8.39;100.00;93771.19;2131103;27;20113;-71
2022/10/03 00:37:23;;;;;;;4.78;1.33;;;;;;;8.37;100.00;93778.03;2130230;27;20536;-71
2022/10/03 00:38:24;;;;;;;7.47;0.90;;;;;;;8.28;100.00;93778.41;2118163;27;20030;-73
2022/10/03 00:39:39;;;;;;;2.63;0.90;;;;;;;8.23;100.00;93778.81;2122146;27;20034;-71
2022/10/03 00:40:59;;;;;;;3.13;0.90;;;;;;;8.20;100.00;93785.66;2131325;27;20031;-70
2022/10/03 00:42:19;;;;;;;3.70;1.13;;;;;;;8.25;100.00;93787.16;2127559;27;20093;-71
2022/10/03 00:43:44;;;;;;;2.42;0.88;;;;;;;8.28;100.00;93795.13;2130664;27;20376;-72
2022/10/03 00:45:15;;;;;;;3.70;1.00;;;;;;;8.25;100.00;93792.47;2120924;27;20019;-71
2022/10/03 00:46:34;;;;;;;3.90;1.27;;;;;;;8.20;100.00;93795.53;2125783;27;20066;-70
2022/10/03 00:47:44;;;;;;;2.25;1.23;;;;;;;8.28;100.00;93789.81;2130640;27;20084;-72
2022/10/03 00:49:09;;;;;;;4.50;1.50;;;;;;;8.24;100.00;93791.72;2131283;27;20034;-71
2022/10/03 00:50:21;;;;;;;8.45;1.60;;;;;;;8.27;100.00;93795.53;2129075;27;20109;-70
2022/10/03 00:51:22;;;;;;;2.47;1.40;;;;;;;8.28;100.00;93792.47;2126918;27;20132;-70
2022/10/03 00:52:41;;;;;;;5.10;1.70;;;;;;;8.30;100.00;93792.88;2130630;27;20023;-70
2022/10/03 00:53:48;;;;;;;1.80;1.50;;;;;;;8.35;100.00;93789.06;2131077;27;20038;-70
2022/10/03 00:55:22;;;;;;;4.28;1.75;;;;;;;8.36;100.00;93781.81;2130910;27;20456;-72
2022/10/03 00:56:35;;;;;;;1.50;1.40;;;;;;;8.39;100.00;93775.75;2126054;27;20030;-74
2022/10/03 00:57:57;;;;;;;5.50;1.60;;;;;;;8.40;100.00;93778.03;2130266;27;20022;-71
2022/10/03 00:59:04;;;;;;;3.72;2.03;;;;;;;8.33;100.00;93770.00;2128100;27;20066;-74
2022/10/03 01:00:23;;;;;;;3.15;2.20;;;;;;;8.37;100.00;93778.03;2131698;27;20035;-71
2022/10/03 01:01:43;;;;;;;3.03;1.92;;;;;;;8.38;100.00;93774.22;2122282;27;20035;-71
2022/10/03 01:03:02;;;;;;;3.40;2.55;;;;;;;8.45;100.00;93761.66;2130974;27;20035;-72
2022/10/03 01:04:39;;;;;;;2.90;2.70;;;;;;;8.48;100.00;93766.22;2129163;27;20031;-74
2022/10/03 01:05:59;;;;;;;5.22;2.40;;;;;;;8.40;100.00;93762.03;2101614;27;20033;-71
2022/10/03 01:07:03;;;;;;;2.38;2.20;;;;;;;8.42;100.00;93764.31;2127936;27;20026;-72
2022/10/03 01:08:22;;;;;;;7.57;3.15;;;;;;;8.39;100.00;93760.53;2130721;27;20472;-71
2022/10/03 01:09:46;;;;;;;7.82;2.83;;;;;;;8.39;100.00;93767.78;2130070;27;20717;-73
2022/10/03 01:11:16;;;;;;;3.47;3.13;;;;;;;8.35;100.00;93767.00;2130983;27;20041;-71
2022/10/03 01:12:39;;;;;;;7.93;2.90;;;;;;;8.40;100.00;93767.38;2130183;27;20805;-74
2022/10/03 01:13:58;;;;;;;4.32;2.95;;;;;;;8.48;100.00;93768.13;2128178;27;20018;-71
2022/10/03 01:15:35;;;;;;;6.00;2.92;;;;;;;8.42;100.00;93773.06;2128082;27;20136;-71
2022/10/03 01:16:55;;;;;;;7.85;3.00;;;;;;;8.36;100.00;93779.91;2130606;27;20023;-70
2022/10/03 01:18:04;;;;;;;2.72;2.53;;;;;;;8.40;100.00;93788.69;2128153;27;20503;-71
2022/10/03 01:19:26;;;;;;;4.15;2.90;;;;;;;8.39;100.00;93789.84;2129704;27;20414;-71
2022/10/03 01:20:38;;;;;;;4.10;2.67;;;;;;;8.38;100.00;93785.63;2127270;27;20598;-71
2022/10/03 01:22:14;;;;;;;3.10;2.72;;;;;;;8.38;100.00;93787.53;2131052;27;20026;-72
2022/10/03 01:24:12;;;;;;;2.72;1.92;;;;;;;8.45;100.00;93777.63;2130187;27;20104;-73
2022/10/03 01:25:45;;;;;;;3.33;2.30;;;;;;;8.44;100.00;93784.09;2087521;28;20025;-71
2022/10/03 01:27:00;;;;;;;2.80;2.60;;;;;;;8.33;100.00;93794.75;2082457;28;20029;-73
2022/10/03 01:30:22;;;;;;;4.15;2.90;;;;;;;8.28;100.00;93797.03;2084344;28;20041;-71
2022/10/03 01:31:32;;;;;;;4.03;2.88;;;;;;;8.25;100.00;93798.59;2125887;27;20047;-71
2022/10/03 01:32:51;;;;;;;5.15;2.40;;;;;;;8.18;100.00;93795.94;2127748;27;20061;-74
2022/10/03 01:34:06;;;;;;;4.55;2.50;;;;;;;8.19;100.00;93810.00;2126728;27;20036;-71
2022/10/03 01:35:27;;;;;;;7.28;2.75;;;;;;;8.08;100.00;93808.13;2130416;27;20031;-73
2022/10/03 01:37:01;;;;;;;3.10;2.80;;;;;;;8.05;100.00;93805.47;2127677;27;20458;-72
2022/10/03 01:38:11;;;;;;;5.05;2.63;;;;;;;7.95;100.00;93808.91;2127987;27;20034;-71
2022/10/03 01:39:21;;;;;;;2.92;2.65;;;;;;;7.93;100.00;93805.84;2131016;27;20410;-71
2022/10/03 01:40:35;;;;;;;4.32;2.67;;;;;;;7.90;100.00;93803.94;2120829;27;20377;-74
2022/10/03 01:41:58;;;;;;;3.15;2.50;;;;;;;7.81;100.00;93807.75;2123552;27;20640;-72
2022/10/03 01:43:48;;;;;;;2.80;2.58;;;;;;;7.96;100.00;93807.75;2127006;27;20031;-71
2022/10/03 01:45:00;;;;;;;3.08;2.40;;;;;;;7.87;100.00;93799.38;2100268;28;20028;-71
2022/10/03 01:46:25;;;;;;;2.85;2.60;;;;;;;7.83;100.00;93802.81;2091005;28;20040;-71
2022/10/03 01:47:46;;;;;;;5.20;2.40;;;;;;;7.85;100.00;93804.31;2118143;27;20122;-72
2022/10/03 01:48:47;;;;;;;5.22;2.78;;;;;;;7.76;100.00;93800.13;2130155;27;20270;-71
2022/10/03 01:50:24;;;;;;;3.42;2.38;;;;;;;7.81;100.00;93804.31;2130414;27;20034;-74
2022/10/03 01:51:59;;;;;;;4.30;2.15;;;;;;;7.83;100.00;93807.38;2126974;27;20027;-72
2022/10/03 01:53:28;;;;;;;4.38;2.80;;;;;;;7.74;100.00;93813.06;2127378;27;20038;-70
2022/10/03 01:54:38;;;;;;;3.78;2.28;;;;;;;7.71;100.00;93813.06;2118137;27;20023;-74
2022/10/03 01:55:44;;;;;;;3.17;2.60;;;;;;;7.70;100.00;93806.22;2122495;27;20469;-73
2022/10/03 01:56:54;;;;;;;6.03;2.50;;;;;;;7.69;100.00;93816.13;2128973;27;20666;-73
2022/10/03 01:58:04;;;;;;;3.55;2.58;;;;;;;7.75;100.00;93813.84;2126725;27;20045;-73
2022/10/03 01:59:17;;;;;;;5.10;2.97;;;;;;;7.81;100.00;93812.31;2130562;27;20113;-74
2022/10/03 02:00:22;;;;;;;2.83;2.55;;;;;;;7.85;100.00;93818.38;2130619;27;20033;-71
2022/10/03 02:01:50;;;;;;;4.22;2.72;;;;;;;7.89;100.00;93824.47;2129721;27;20050;-71
2022/10/03 02:03:12;;;;;;;7.25;2.58;;;;;;;7.85;100.00;93818.38;2116430;27;20035;-72
2022/10/03 02:04:20;;;;;;;3.55;2.63;;;;;;;7.89;100.00;93815.72;2129138;27;20030;-71
2022/10/03 02:05:41;;;;;;;3.75;2.75;;;;;;;7.92;100.00;93822.97;2130413;27;20045;-71
2022/10/03 02:06:49;;;;;;;6.40;3.30;;;;;;;7.87;100.00;93818.03;2096055;28;20058;-74
2022/10/03 02:07:53;;;;;;;5.55;3.03;;;;;;;7.79;100.00;93814.59;2123368;27;20103;-72
2022/10/03 02:09:08;;;;;;;7.40;3.33;;;;;;;7.74;100.00;93825.63;2126440;27;20102;-71
2022/10/03 02:10:37;;;;;;;6.20;3.40;;;;;;;7.75;100.00;93817.25;2130541;27;20405;-71
2022/10/03 02:11:44;;;;;;;5.10;3.50;;;;;;;7.78;100.00;93821.06;2128107;27;20023;-71
2022/10/03 02:13:13;;;;;;;9.18;3.40;;;;;;;7.70;100.00;93814.22;2130703;27;20026;-73
2022/10/03 02:15:54;;;;;;;;;;;;;;;7.53;100.00;93816.47;2143619;27;20554;-69
2022/10/03 02:17:06;;;;;;;4.35;3.20;;;;;;;7.49;100.00;93817.59;2137193;27;20444;-69
2022/10/03 02:18:22;;;;;;;4.15;3.75;;;;;;;7.45;100.00;93814.19;2142418;27;20393;-70
2022/10/03 02:19:29;;;;;;;7.32;3.35;;;;;;;7.52;100.00;93814.19;2138177;27;20446;-73
2022/10/03 02:20:34;;;;;;;4.53;3.25;;;;;;;7.53;100.00;93813.06;2141981;27;20022;-73
2022/10/03 02:21:46;;;;;;;5.20;3.40;;;;;;;7.45;100.00;93814.94;2142136;27;20022;-71
2022/10/03 02:22:52;;;;;;;4.55;3.33;;;;;;;7.46;100.00;93818.34;2141836;27;20063;-73
2022/10/03 02:24:30;;;;;;;4.65;2.88;;;;;;;7.41;100.00;93822.16;2137768;27;20404;-70
2022/10/03 02:25:52;;;;;;;3.53;3.08;;;;;;;7.46;100.00;93819.16;2139463;27;20479;-72
2022/10/03 02:27:11;;;;;;;6.95;3.20;;;;;;;7.57;100.00;93822.56;2137336;27;20446;-72
2022/10/03 02:28:46;;;;;;;4.45;3.10;;;;;;;7.67;100.00;93829.03;2142852;27;20041;-73
2022/10/03 02:30:05;;;;;;;4.65;3.00;;;;;;;7.63;100.00;93833.59;2141302;27;20456;-70
2022/10/03 02:31:47;;;;;;;4.25;3.40;;;;;;;7.66;100.00;93829.41;2139919;27;20030;-72
2022/10/03 02:33:15;;;;;;;3.90;3.03;;;;;;;7.62;100.00;93829.41;2111874;27;20702;-70
2022/10/03 02:34:42;;;;;;;4.80;3.03;;;;;;;7.69;100.00;93834.00;2140781;27;20029;-74
2022/10/03 02:36:01;;;;;;;3.40;3.10;;;;;;;7.66;100.00;93829.41;2140997;27;20113;-71
2022/10/03 02:37:34;;;;;;;4.07;3.00;;;;;;;7.66;100.00;93829.41;2142276;27;20098;-72
2022/10/03 02:38:56;;;;;;;4.78;2.92;;;;;;;7.62;100.00;93831.31;2128941;27;20034;-73
2022/10/03 02:40:20;;;;;;;4.57;3.38;;;;;;;7.56;100.00;93828.28;2132426;27;20029;-71
2022/10/03 02:41:43;;;;;;;5.43;3.67;;;;;;;7.57;100.00;93832.44;2128733;27;20030;-73
2022/10/03 02:43:07;;;;;;;6.28;3.70;;;;;;;7.55;100.00;93832.84;2141057;27;20023;-71
2022/10/03 02:44:14;;;;;;;7.25;3.20;;;;;;;7.58;100.00;93829.41;2141340;27;20022;-70
2022/10/03 02:45:35;;;;;;;6.28;3.75;;;;;;;7.57;100.00;93832.44;2139429;27;20026;-72
2022/10/03 02:46:52;;;;;;;6.43;3.33;;;;;;;7.54;100.00;93833.94;2106529;28;20042;-71
2022/10/03 02:48:09;;;;;;;4.13;3.58;;;;;;;7.64;100.00;93837.00;2142018;27;20476;-71
2022/10/03 02:49:47;;;;;;;3.25;2.95;;;;;;;7.80;100.00;93837.41;2140718;27;20114;-75
2022/10/03 02:51:06;;;;;;;5.50;3.50;;;;;;;7.72;100.00;93841.94;2136583;27;20029;-73
2022/10/03 02:52:21;;;;;;;3.67;3.38;;;;;;;7.71;100.00;93837.78;2139866;27;20033;-72
2022/10/03 02:53:25;;;;;;;3.95;3.45;;;;;;;7.67;100.00;93836.25;2137954;27;20026;-70
2022/10/03 02:54:39;;;;;;;7.03;3.50;;;;;;;7.58;100.00;93832.06;2139953;27;20068;-70
2022/10/03 02:55:58;;;;;;;7.93;3.00;;;;;;;7.60;100.00;93831.69;2141954;27;20085;-71
2022/10/03 02:57:21;;;;;;;7.03;3.08;;;;;;;7.65;100.00;93833.22;2140741;27;20026;-69
2022/10/03 02:58:28;;;;;;;3.33;3.05;;;;;;;7.57;100.00;93827.13;2141684;27;20030;-69
2022/10/03 02:59:50;;;;;;;8.82;3.20;;;;;;;7.64;100.00;93826.34;2133740;27;20380;-69
2022/10/03 03:01:04;;;;;;;7.53;4.10;;;;;;;7.68;100.00;93825.25;2142246;27;20071;-74
2022/10/03 03:02:42;;;;;;;10.88;3.22;;;;;;;7.63;100.00;93822.94;2139598;27;20038;-73
2022/10/03 03:04:21;;;;;;;7.28;3.40;;;;;;;7.64;100.00;93826.34;2140615;27;20117;-70
2022/10/03 03:06:02;;;;;;;4.95;2.67;;;;;;;7.51;100.00;93824.09;2137720;27;20039;-70
2022/10/03 03:07:28;;;;;;;3.00;2.70;;;;;;;7.64;100.00;93821.03;2139349;27;20113;-71
2022/10/03 03:08:53;;;;;;;4.63;2.78;;;;;;;7.74;100.00;93823.72;2141948;27;20082;-71
2022/10/03 03:10:19;;;;;;;4.47;2.65;;;;;;;7.68;100.00;93824.47;2137204;27;20022;-72
2022/10/03 03:11:46;;;;;;;4.10;2.53;;;;;;;7.67;100.00;93826.38;2141689;27;20065;-70
2022/10/03 03:13:24;;;;;;;2.83;2.47;;;;;;;7.48;100.00;93822.16;2141338;27;20034;-71
2022/10/03 03:14:56;;;;;;;4.22;2.80;;;;;;;7.39;100.00;93823.69;2138111;27;20070;-73
2022/10/03 03:16:25;;;;;;;2.65;2.45;;;;;;;7.47;100.00;93822.56;2138255;27;20792;-71
2022/10/03 03:17:43;;;;;;;6.22;2.67;;;;;;;7.47;100.00;93828.63;2138242;27;20044;-70
2022/10/03 03:19:31;;;;;;;2.83;2.60;;;;;;;7.41;100.00;93813.41;2141963;27;20030;-71
2022/10/03 03:20:50;;;;;;;14.63;3.00;;;;;;;7.50;100.00;93825.19;2097658;28;20047;-70
2022/10/03 03:22:12;;;;;;;10.82;3.25;;;;;;;7.51;100.00;93812.69;2098074;28;20112;-72
2022/10/03 03:23:35;;;;;;;6.40;3.38;;;;;;;7.45;100.00;93817.59;2137452;27;20496;-72
2022/10/03 03:24:35;;;;;;;3.97;3.60;;;;;;;7.49;100.00;93826.34;2132900;27;20030;-70
2022/10/03 03:25:51;;;;;;;5.85;2.95;;;;;;;7.48;100.00;93824.84;2131512;27;20050;-75
2022/10/03 03:27:15;;;;;;;6.20;3.55;;;;;;;7.55;100.00;93826.72;2126578;27;20105;-70
2022/10/03 03:28:27;;;;;;;6.88;3.17;;;;;;;7.49;100.00;93820.28;2136093;27;20037;-70
2022/10/03 03:29:54;;;;;;;7.20;3.70;;;;;;;7.47;100.00;93822.56;2129722;27;20038;-71
2022/10/03 03:31:08;;;;;;;4.85;3.22;;;;;;;7.50;100.00;93825.19;2136624;27;20036;-72
2022/10/03 03:32:13;;;;;;;3.83;3.53;;;;;;;7.48;100.00;93821.41;2136051;27;20361;-70
2022/10/03 03:33:20;;;;;;;4.32;3.85;;;;;;;7.43;100.00;93819.88;2126314;27;20027;-76
2022/10/03 03:34:42;;;;;;;3.58;3.28;;;;;;;7.48;100.00;93821.41;2131772;27;20769;-75
2022/10/03 03:36:15;;;;;;;6.10;3.05;;;;;;;7.53;100.00;93821.03;2136248;27;20376;-73
2022/10/03 03:37:33;;;;;;;5.35;3.55;;;;;;;7.57;100.00;93817.25;2130034;27;20053;-74
2022/10/03 03:38:50;;;;;;;7.70;3.58;;;;;;;7.55;100.00;93824.84;2134308;27;20121;-70
2022/10/03 03:39:54;;;;;;;3.72;3.33;;;;;;;7.54;100.00;93819.88;2139684;27;20054;-72
2022/10/03 03:41:19;;;;;;;6.72;4.05;;;;;;;7.45;100.00;93822.91;2126047;27;20729;-75
2022/10/03 03:42:50;;;;;;;4.28;3.85;;;;;;;7.50;100.00;93813.81;2136293;27;20037;-70
2022/10/03 03:44:12;;;;;;;6.38;3.38;;;;;;;7.46;100.00;93818.34;2140048;27;20034;-69
2022/10/03 03:45:40;;;;;;;4.00;3.38;;;;;;;7.42;100.00;93823.69;2130311;27;20452;-73
2022/10/03 03:47:22;;;;;;;4.00;3.70;;;;;;;7.39;100.00;93816.47;2137703;27;20732;-70
2022/10/03 03:48:29;;;;;;;5.05;3.83;;;;;;;7.29;100.00;93806.56;2100995;28;20028;-69
2022/10/03 03:49:42;;;;;;;5.97;5.47;;;;;;;7.24;100.00;93814.91;2130224;27;20038;-72
2022/10/03 03:51:00;;;;;;;8.45;7.63;;;;;;;7.17;100.00;93806.91;2132793;27;20030;-71
2022/10/03 03:52:40;;;;;;;7.43;6.18;;;;;;;7.21;100.00;93807.69;2125276;27;20045;-75
2022/10/03 03:54:02;;;;;;;5.13;3.97;;;;;;;7.27;100.00;93798.19;2132941;27;20026;-75
2022/10/03 03:55:23;;;;;;;4.00;3.70;;;;;;;7.23;100.00;93803.50;2126464;27;20139;-76
2022/10/03 03:56:23;;;;;;;;;;;;;;;7.30;100.00;93811.50;2135442;27;20026;-72
2022/10/03 03:57:45;;;;;;;5.55;3.40;;;;;;;7.34;100.00;93808.84;2136457;27;19994;-71
2022/10/03 03:59:11;;;;;;;5.22;3.47;;;;;;;7.23;100.00;93808.81;2132162;27;20033;-74
2022/10/03 04:00:17;;;;;;;3.70;3.30;;;;;;;7.18;100.00;93814.50;2128620;27;20038;-72
2022/10/03 04:01:42;;;;;;;3.92;3.58;;;;;;;7.22;100.00;93817.94;2135150;27;20027;-73
2022/10/03 04:03:02;;;;;;;4.07;3.72;;;;;;;7.17;100.00;93814.91;2137734;27;20116;-71
2022/10/03 04:04:40;;;;;;;4.50;3.80;;;;;;;7.25;100.00;93816.44;2126305;27;20062;-72
2022/10/03 04:06:06;;;;;;;3.20;2.95;;;;;;;7.28;100.00;93808.44;2098385;27;20067;-72
2022/10/03 04:07:25;;;;;;;4.90;3.75;;;;;;;7.31;100.00;93813.03;2129679;27;20026;-71
2022/10/03 04:08:34;;;;;;;5.82;4.05;;;;;;;7.30;100.00;93821.38;2135328;27;20030;-71
2022/10/03 04:09:53;;;;;;;5.78;4.80;;;;;;;7.21;100.00;93813.78;2137310;27;20408;-71
2022/10/03 04:11:16;;;;;;;5.57;5.05;;;;;;;7.28;100.00;93819.09;2123186;27;20088;-74
2022/10/03 04:12:33;;;;;;;5.40;4.90;;;;;;;7.37;100.00;93818.72;2136741;27;20105;-71
2022/10/03 04:13:56;;;;;;;7.63;4.93;;;;;;;7.48;100.00;93822.16;2133984;27;20026;-71
2022/10/03 04:15:13;;;;;;;6.88;5.32;;;;;;;7.47;100.00;93819.91;2127918;27;20840;-71
2022/10/03 04:16:13;;;;;;;8.82;5.00;;;;;;;7.34;100.00;93822.16;2129004;27;20053;-71
2022/10/03 04:19:21;;;;;;;5.57;5.07;;;;;;;7.30;100.00;93816.06;2135755;27;20075;-74
2022/10/03 04:20:44;;;;;;;10.07;5.18;;;;;;;7.27;100.00;93819.47;2135784;27;20030;-71
2022/10/03 04:22:27;;;;;;;6.32;5.18;;;;;;;7.30;100.00;93821.38;2135581;27;20030;-71
2022/10/03 04:24:05;;;;;;;5.97;4.50;;;;;;;7.29;100.00;93830.50;2132486;27;20025;-74
2022/10/03 04:25:27;;;;;;;4.90;4.47;;;;;;;7.40;100.00;93831.28;2126719;27;20031;-74
2022/10/03 04:26:28;;;;;;;10.05;4.80;;;;;;;7.46;100.00;93818.34;2135417;27;20036;-71
2022/10/03 04:28:09;;;;;;;9.10;4.97;;;;;;;7.41;100.00;93826.72;2131774;27;20103;-71
2022/10/03 04:29:39;;;;;;;9.25;5.07;;;;;;;7.36;100.00;93827.84;2093232;27;20044;-72
2022/10/03 04:31:10;;;;;;;6.10;5.40;;;;;;;7.40;100.00;93823.28;2138687;27;20502;-72
2022/10/03 04:32:47;;;;;;;8.55;5.38;;;;;;;7.44;100.00;93836.59;2119339;27;20489;-72
2022/10/03 04:34:10;;;;;;;6.22;4.32;;;;;;;7.41;100.00;93832.03;2126825;27;20034;-73
2022/10/03 04:35:37;;;;;;;7.45;4.80;;;;;;;7.44;100.00;93837.38;2125153;27;20031;-73
2022/10/03 04:36:52;;;;;;;8.82;5.38;;;;;;;7.43;100.00;93830.53;2133390;27;20513;-72
2022/10/03 04:38:14;;;;;;;7.80;5.25;;;;;;;7.49;100.00;93834.31;2124607;27;20668;-72
2022/10/03 04:39:37;;;;;;;6.50;5.00;;;;;;;7.45;100.00;93843.44;2136127;27;20019;-72
2022/10/03 04:41:03;;;;;;;8.02;5.47;;;;;;;7.43;100.00;93830.53;2137431;27;20840;-73
2022/10/03 04:42:28;;;;;;;7.45;5.38;;;;;;;7.37;100.00;93836.56;2123644;27;20117;-71
2022/10/03 04:43:59;;;;;;;7.50;5.07;;;;;;;7.35;100.00;93830.88;2118695;27;20023;-71
2022/10/03 04:45:32;;;;;;;6.60;5.97;;;;;;;7.30;100.00;93835.44;2091483;28;20052;-72
2022/10/03 04:46:51;;;;;;;8.43;5.72;;;;;;;7.17;100.00;93831.59;2130819;27;20058;-73
2022/10/03 04:48:03;;;;;;;8.85;5.40;;;;;;;7.15;100.00;93830.44;2122712;27;20034;-74
2022/10/03 04:49:13;;;;;;;13.50;5.90;;;;;;;7.14;100.00;93828.94;2132488;27;20091;-73
2022/10/03 04:50:27;;;;;;;8.73;5.97;;;;;;;7.10;100.00;93830.81;2136537;27;20118;-71
2022/10/03 04:51:59;;;;;;;7.60;5.40;;;;;;;7.04;100.00;93831.19;2135817;27;20026;-73
2022/10/03 04:53:42;;;;;;;8.73;5.85;;;;;;;6.98;100.00;93831.91;2124640;27;20477;-74
2022/10/03 04:55:03;;;;;;;14.18;5.65;;;;;;;6.96;100.00;93826.22;2136709;27;20033;-75
2022/10/03 04:56:26;;;;;;;8.70;5.22;;;;;;;6.92;100.00;93838.72;2125965;27;20039;-71
2022/10/03 04:57:46;;;;;;;8.20;5.95;;;;;;;6.98;100.00;93830.03;2132383;27;20086;-73
2022/10/03 04:59:24;;;;;;;7.10;6.07;;;;;;;6.99;100.00;93822.81;2125957;27;20018;-74
2022/10/03 05:00:33;;;;;;;8.20;5.25;;;;;;;7.00;100.00;93825.09;2128088;27;20419;-72
2022/10/03 05:01:46;;;;;;;11.10;5.65;;;;;;;7.06;100.00;93825.50;2135376;27;20050;-72
2022/10/03 05:03:04;;;;;;;12.35;6.30;;;;;;;7.09;100.00;93826.66;2135084;27;20030;-72
2022/10/03 05:04:25;;;;;;;9.77;5.93;;;;;;;7.05;100.00;93818.66;2126172;27;20081;-72
2022/10/03 05:05:46;;;;;;;8.43;5.38;;;;;;;7.20;100.00;93827.41;2131804;27;20472;-74
2022/10/03 05:07:18;;;;;;;7.63;5.85;;;;;;;7.15;100.00;93820.56;2131787;27;20044;-71
2022/10/03 05:08:33;;;;;;;7.53;5.50;;;;;;;7.11;100.00;93822.47;2122525;27;20037;-72
2022/10/03 05:09:37;;;;;;;6.60;5.88;;;;;;;7.10;100.00;93822.84;2132730;27;20030;-74
2022/10/03 05:10:38;;;;;;;6.03;5.28;;;;;;;7.04;100.00;93817.91;2137691;27;20030;-72
2022/10/03 05:12:15;;;;;;;6.50;5.53;;;;;;;7.22;100.00;93827.81;2132278;27;20463;-73
2022/10/03 05:13:31;;;;;;;10.57;5.47;;;;;;;7.27;100.00;93827.44;2128776;27;20079;-72
2022/10/03 05:14:56;;;;;;;6.07;5.40;;;;;;;7.18;100.00;93832.38;2133615;27;20094;-74
2022/10/03 05:16:17;;;;;;;7.60;4.72;;;;;;;7.16;100.00;93829.34;2122165;27;20088;-75
2022/10/03 05:17:39;;;;;;;8.18;4.80;;;;;;;7.14;100.00;93829.69;2129806;27;20022;-74
2022/10/03 05:19:04;;;;;;;7.63;4.85;;;;;;;7.14;100.00;93826.28;2136294;27;20622;-73
2022/10/03 05:20:41;;;;;;;7.43;4.78;;;;;;;7.18;100.00;93827.81;2132642;27;20048;-73
2022/10/03 05:22:29;;;;;;;6.68;4.47;;;;;;;7.16;100.00;93827.44;2099611;28;21702;-73
2022/10/03 05:23:52;;;;;;;6.93;5.30;;;;;;;7.15;100.00;93831.22;2133150;27;20033;-73
2022/10/03 05:25:14;;;;;;;7.45;5.38;;;;;;;7.21;100.00;93832.38;2130304;27;20049;-76
2022/10/03 05:26:27;;;;;;;8.63;4.60;;;;;;;7.15;100.00;93828.53;2128800;27;20032;-76
2022/10/03 05:27:58;;;;;;;6.72;4.35;;;;;;;7.13;100.00;93841.47;2134370;27;20096;-75
2022/10/03 05:29:17;;;;;;;5.78;4.68;;;;;;;7.41;100.00;93840.00;2123854;27;20034;-75
2022/10/03 05:30:43;;;;;;;5.85;4.85;;;;;;;7.62;100.00;93849.94;2132386;27;20026;-73
2022/10/03 05:32:04;;;;;;;6.95;4.90;;;;;;;7.57;100.00;93848.41;2138265;27;20030;-73
2022/10/03 05:33:21;;;;;;;5.47;4.97;;;;;;;7.57;100.00;93851.06;2125946;27;20035;-72
2022/10/03 05:34:52;;;;;;;7.00;5.25;;;;;;;7.47;100.00;93855.22;2135238;27;20034;-75
2022/10/03 05:36:13;;;;;;;6.50;5.00;;;;;;;7.44;100.00;93847.25;2117290;27;20031;-72
2022/10/03 05:37:24;;;;;;;10.20;5.80;;;;;;;7.32;100.00;93853.66;2129813;27;20066;-71
2022/10/03 05:38:48;;;;;;;11.00;6.20;;;;;;;7.35;100.00;93858.25;2119061;27;20106;-76
2022/10/03 05:40:11;;;;;;;7.18;5.55;;;;;;;7.37;100.00;93853.28;2132327;27;20030;-76
2022/10/03 05:41:15;;;;;;;15.75;6.40;;;;;;;7.37;100.00;93855.97;2128500;27;20039;-72
2022/10/03 05:42:40;;;;;;;6.15;5.35;;;;;;;7.40;100.00;93857.88;2132386;27;20026;-73
2022/10/03 05:44:05;;;;;;;5.68;5.18;;;;;;;7.31;100.00;93855.56;2130904;27;20698;-73
2022/10/03 05:45:22;;;;;;;11.35;5.60;;;;;;;7.26;100.00;93858.59;2123596;27;20138;-72
2022/10/03 05:47:01;;;;;;;9.20;6.93;;;;;;;7.20;100.00;93862.78;2124739;27;20031;-74
2022/10/03 05:48:12;;;;;;;7.15;5.70;;;;;;;7.21;100.00;93866.19;2131971;27;20170;-75
2022/10/03 05:49:32;;;;;;;8.88;6.00;;;;;;;7.19;100.00;93871.88;2129073;27;20026;-73
2022/10/03 05:50:56;;;;;;;7.93;6.38;;;;;;;7.13;100.00;93864.63;2130396;27;20110;-72
2022/10/03 05:52:13;;;;;;;8.75;6.72;;;;;;;7.10;100.00;93876.00;2130735;27;20037;-72
2022/10/03 05:53:35;;;;;;;17.52;7.90;;;;;;;7.10;100.00;93868.03;2132258;27;20105;-71
2022/10/03 05:54:49;;;;;;;10.57;8.55;;;;;;;7.16;100.00;93872.63;2088522;28;20037;-75
2022/10/03 05:56:25;;;;;;;14.98;12.60;;;;;;;7.09;100.00;93869.94;2137192;27;20018;-71
2022/10/03 05:57:40;;;;;;;14.20;11.48;;;;;;;7.07;100.00;93866.91;2119554;27;20122;-72
2022/10/03 05:59:24;;;;;;;14.07;11.77;;;;;;;7.18;100.00;93872.25;2131387;27;20033;-72
2022/10/03 06:01:00;;;;;;;17.02;12.02;;;;;;;7.15;100.00;93873.75;2128731;27;20030;-72
2022/10/03 06:02:39;;;;;;;15.25;11.63;;;;;;;7.18;100.00;93872.25;2124073;27;20423;-71
2022/10/03 06:03:58;;;;;;;12.80;10.57;;;;;;;7.22;100.00;93876.44;2132969;27;20110;-74
2022/10/03 06:05:24;;;;;;;13.32;11.02;;;;;;;7.18;100.00;93878.31;2136601;27;20041;-71
2022/10/03 06:06:46;;;;;;;12.32;8.98;;;;;;;7.38;100.00;93884.09;2132581;27;20062;-72
2022/10/03 06:08:26;;;;;;;9.85;7.40;;;;;;;7.36;100.00;93885.59;2128133;27;20104;-72
2022/10/03 06:09:51;;;;;;;10.93;6.50;;;;;;;7.34;100.00;93891.31;2129459;27;20113;-72
2022/10/03 06:11:06;;;;;;;11.68;5.32;;;;;;;7.36;100.00;93889.00;2136521;27;20074;-72
2022/10/03 06:12:14;;;;;;;8.93;5.63;;;;;;;7.46;100.00;93887.50;2133883;27;20708;-72
2022/10/03 06:13:54;;;;;;;9.90;5.55;;;;;;;7.46;100.00;93888.31;2132605;27;20041;-71
2022/10/03 06:15:08;;;;;;;7.65;6.85;;;;;;;7.38;100.00;93892.06;2124156;27;20391;-71
2022/10/03 06:16:14;;;;;;;6.40;5.80;;;;;;;7.43;100.00;93891.69;2124233;27;20110;-71
2022/10/03 06:17:25;;;;;;;11.93;6.47;;;;;;;7.42;100.00;93898.16;2132878;27;20384;-71
2022/10/03 06:19:05;;;;;;;12.68;11.38;;;;;;;7.43;100.00;93897.03;2124810;27;20570;-71
2022/10/03 06:20:43;;;;;;;8.85;7.47;;;;;;;7.44;100.00;93901.19;2132265;27;20587;-74
2022/10/03 06:22:29;;;;;;;5.95;5.30;;;;;;;7.60;100.00;93902.78;2134714;27;20034;-71
2022/10/03 06:24:12;;;;;;;6.53;5.40;;;;;;;7.54;100.00;93900.44;2128215;27;20559;-74
2022/10/03 06:25:55;;;;;;;7.80;6.15;;;;;;;7.51;100.00;93900.47;2110617;28;20109;-71
2022/10/03 06:27:34;;;;;;;12.45;6.45;;;;;;;7.52;100.00;93905.41;2118101;27;20049;-71